sensor_id;sensor_type;location;lat;lon;timestamp;P1;durP1;ratioP1;P2;durP2;ratioP2
11255;SDS011;5685;52.384;13.420;2023-05-29T00:02:25;76.03;;;41.40;;
11255;SDS011;5685;52.384;13.420;2023-05-29T00:05:27;75.77;;;41.23;;
11255;SDS011;5685;52.384;13.420;2023-05-29T00:08:29;76.00;;;41.30;;
11255;SDS011;5685;52.384;13.420;2023-05-29T00:11:32;75.97;;;41.40;;
11255;SDS011;5685;52.384;13.420;2023-05-29T00:14:34;75.93;;;41.30;;
11255;SDS011;5685;52.384;13.420;2023-05-29T00:17:38;76.90;;;41.73;;
11255;SDS011;5685;52.384;13.420;2023-05-29T00:20:41;76.37;;;41.60;;
11255;SDS011;5685;52.384;13.420;2023-05-29T00:23:43;76.77;;;41.63;;
11255;SDS011;5685;52.384;13.420;2023-05-29T00:26:46;76.13;;;41.40;;
11255;SDS011;5685;52.384;13.420;2023-05-29T00:29:48;75.93;;;41.30;;
11255;SDS011;5685;52.384;13.420;2023-05-29T00:32:52;76.40;;;41.23;;
11255;SDS011;5685;52.384;13.420;2023-05-29T00:35:54;75.93;;;41.30;;
11255;SDS011;5685;52.384;13.420;2023-05-29T00:38:56;76.37;;;41.40;;
11255;SDS011;5685;52.384;13.420;2023-05-29T00:41:59;77.00;;;41.73;;
11255;SDS011;5685;52.384;13.420;2023-05-29T00:45:01;76.37;;;41.57;;
11255;SDS011;5685;52.384;13.420;2023-05-29T00:48:05;76.33;;;41.37;;
11255;SDS011;5685;52.384;13.420;2023-05-29T00:51:09;76.27;;;41.40;;
11255;SDS011;5685;52.384;13.420;2023-05-29T00:54:12;76.80;;;41.73;;
11255;SDS011;5685;52.384;13.420;2023-05-29T00:57:16;76.40;;;41.37;;
11255;SDS011;5685;52.384;13.420;2023-05-29T01:00:19;76.60;;;41.53;;
11255;SDS011;5685;52.384;13.420;2023-05-29T01:03:23;76.23;;;41.33;;
11255;SDS011;5685;52.384;13.420;2023-05-29T01:06:28;76.17;;;41.23;;
11255;SDS011;5685;52.384;13.420;2023-05-29T01:09:30;76.70;;;41.70;;
11255;SDS011;5685;52.384;13.420;2023-05-29T01:12:36;76.00;;;41.17;;
11255;SDS011;5685;52.384;13.420;2023-05-29T01:15:41;76.27;;;41.40;;
11255;SDS011;5685;52.384;13.420;2023-05-29T01:18:51;75.97;;;41.37;;
11255;SDS011;5685;52.384;13.420;2023-05-29T01:21:58;76.00;;;41.23;;
11255;SDS011;5685;52.384;13.420;2023-05-29T01:25:09;76.40;;;41.40;;
11255;SDS011;5685;52.384;13.420;2023-05-29T01:28:15;76.60;;;41.50;;
11255;SDS011;5685;52.384;13.420;2023-05-29T01:31:20;75.87;;;41.27;;
11255;SDS011;5685;52.384;13.420;2023-05-29T01:34:24;75.97;;;41.33;;
11255;SDS011;5685;52.384;13.420;2023-05-29T01:37:27;76.27;;;41.30;;
11255;SDS011;5685;52.384;13.420;2023-05-29T01:40:29;76.40;;;41.53;;
11255;SDS011;5685;52.384;13.420;2023-05-29T01:43:33;75.87;;;41.20;;
11255;SDS011;5685;52.384;13.420;2023-05-29T01:46:36;76.30;;;41.43;;
11255;SDS011;5685;52.384;13.420;2023-05-29T01:49:39;76.07;;;41.30;;
11255;SDS011;5685;52.384;13.420;2023-05-29T01:52:42;76.53;;;41.63;;
11255;SDS011;5685;52.384;13.420;2023-05-29T01:55:44;76.33;;;41.53;;
11255;SDS011;5685;52.384;13.420;2023-05-29T01:58:48;76.07;;;41.37;;
11255;SDS011;5685;52.384;13.420;2023-05-29T02:01:51;75.77;;;41.23;;
11255;SDS011;5685;52.384;13.420;2023-05-29T02:04:53;75.33;;;41.03;;
11255;SDS011;5685;52.384;13.420;2023-05-29T02:07:56;75.70;;;41.27;;
11255;SDS011;5685;52.384;13.420;2023-05-29T02:10:58;75.40;;;41.20;;
11255;SDS011;5685;52.384;13.420;2023-05-29T02:14:02;75.90;;;41.33;;
11255;SDS011;5685;52.384;13.420;2023-05-29T02:17:04;76.20;;;41.57;;
11255;SDS011;5685;52.384;13.420;2023-05-29T02:20:07;76.33;;;41.53;;
11255;SDS011;5685;52.384;13.420;2023-05-29T02:23:11;75.90;;;41.33;;
11255;SDS011;5685;52.384;13.420;2023-05-29T02:26:13;75.77;;;41.20;;
11255;SDS011;5685;52.384;13.420;2023-05-29T02:29:17;76.33;;;41.40;;
11255;SDS011;5685;52.384;13.420;2023-05-29T02:32:19;76.27;;;41.47;;
11255;SDS011;5685;52.384;13.420;2023-05-29T02:35:22;75.77;;;41.20;;
11255;SDS011;5685;52.384;13.420;2023-05-29T02:38:24;76.17;;;41.47;;
11255;SDS011;5685;52.384;13.420;2023-05-29T02:41:26;75.43;;;40.93;;
11255;SDS011;5685;52.384;13.420;2023-05-29T02:44:30;76.00;;;41.43;;
11255;SDS011;5685;52.384;13.420;2023-05-29T02:47:33;75.60;;;41.03;;
11255;SDS011;5685;52.384;13.420;2023-05-29T02:50:35;75.73;;;41.10;;
11255;SDS011;5685;52.384;13.420;2023-05-29T02:53:37;75.77;;;41.20;;
11255;SDS011;5685;52.384;13.420;2023-05-29T02:56:40;75.33;;;41.00;;
11255;SDS011;5685;52.384;13.420;2023-05-29T02:59:43;75.70;;;41.17;;
11255;SDS011;5685;52.384;13.420;2023-05-29T03:02:46;75.40;;;40.97;;
11255;SDS011;5685;52.384;13.420;2023-05-29T03:05:48;75.87;;;41.30;;
11255;SDS011;5685;52.384;13.420;2023-05-29T03:08:50;76.13;;;41.47;;
11255;SDS011;5685;52.384;13.420;2023-05-29T03:11:53;75.73;;;41.23;;
11255;SDS011;5685;52.384;13.420;2023-05-29T03:14:56;75.63;;;41.37;;
11255;SDS011;5685;52.384;13.420;2023-05-29T03:17:59;75.47;;;41.07;;
11255;SDS011;5685;52.384;13.420;2023-05-29T03:21:01;74.80;;;40.80;;
11255;SDS011;5685;52.384;13.420;2023-05-29T03:24:04;75.47;;;40.97;;
11255;SDS011;5685;52.384;13.420;2023-05-29T03:27:06;75.77;;;41.10;;
11255;SDS011;5685;52.384;13.420;2023-05-29T03:30:10;75.63;;;41.10;;
11255;SDS011;5685;52.384;13.420;2023-05-29T03:33:13;76.50;;;41.50;;
11255;SDS011;5685;52.384;13.420;2023-05-29T03:36:15;75.53;;;41.07;;
11255;SDS011;5685;52.384;13.420;2023-05-29T03:39:18;75.57;;;41.03;;
11255;SDS011;5685;52.384;13.420;2023-05-29T03:42:20;75.67;;;41.10;;
11255;SDS011;5685;52.384;13.420;2023-05-29T03:45:24;75.70;;;41.13;;
11255;SDS011;5685;52.384;13.420;2023-05-29T03:48:26;75.63;;;41.13;;
11255;SDS011;5685;52.384;13.420;2023-05-29T03:51:29;76.60;;;41.50;;
11255;SDS011;5685;52.384;13.420;2023-05-29T03:54:31;76.17;;;41.27;;
11255;SDS011;5685;52.384;13.420;2023-05-29T03:57:33;76.07;;;41.27;;
11255;SDS011;5685;52.384;13.420;2023-05-29T04:00:37;75.87;;;41.17;;
11255;SDS011;5685;52.384;13.420;2023-05-29T04:03:39;75.60;;;41.00;;
11255;SDS011;5685;52.384;13.420;2023-05-29T04:06:44;75.53;;;41.10;;
11255;SDS011;5685;52.384;13.420;2023-05-29T04:09:46;75.60;;;40.97;;
11255;SDS011;5685;52.384;13.420;2023-05-29T04:12:48;76.23;;;41.30;;
11255;SDS011;5685;52.384;13.420;2023-05-29T04:15:52;75.73;;;41.07;;
11255;SDS011;5685;52.384;13.420;2023-05-29T04:18:54;75.93;;;41.10;;
11255;SDS011;5685;52.384;13.420;2023-05-29T04:21:57;75.87;;;41.10;;
11255;SDS011;5685;52.384;13.420;2023-05-29T04:24:59;75.87;;;41.10;;
11255;SDS011;5685;52.384;13.420;2023-05-29T04:28:03;76.10;;;41.17;;
11255;SDS011;5685;52.384;13.420;2023-05-29T04:31:07;76.10;;;41.20;;
11255;SDS011;5685;52.384;13.420;2023-05-29T04:34:14;75.67;;;41.03;;
11255;SDS011;5685;52.384;13.420;2023-05-29T04:37:17;75.93;;;41.17;;
11255;SDS011;5685;52.384;13.420;2023-05-29T04:40:21;76.33;;;41.40;;
11255;SDS011;5685;52.384;13.420;2023-05-29T04:43:24;75.67;;;41.13;;
11255;SDS011;5685;52.384;13.420;2023-05-29T04:46:28;75.93;;;41.17;;
11255;SDS011;5685;52.384;13.420;2023-05-29T04:49:31;75.77;;;41.10;;
11255;SDS011;5685;52.384;13.420;2023-05-29T04:52:33;75.87;;;41.20;;
11255;SDS011;5685;52.384;13.420;2023-05-29T04:55:38;75.40;;;40.97;;
11255;SDS011;5685;52.384;13.420;2023-05-29T04:58:40;75.57;;;40.97;;
11255;SDS011;5685;52.384;13.420;2023-05-29T05:01:44;75.63;;;41.00;;
11255;SDS011;5685;52.384;13.420;2023-05-29T05:04:47;75.43;;;40.90;;
11255;SDS011;5685;52.384;13.420;2023-05-29T05:07:50;75.53;;;40.97;;
11255;SDS011;5685;52.384;13.420;2023-05-29T05:10:52;76.00;;;41.20;;
11255;SDS011;5685;52.384;13.420;2023-05-29T05:13:54;75.63;;;41.03;;
11255;SDS011;5685;52.384;13.420;2023-05-29T05:16:58;75.50;;;40.90;;
11255;SDS011;5685;52.384;13.420;2023-05-29T05:20:01;75.47;;;40.90;;
11255;SDS011;5685;52.384;13.420;2023-05-29T05:23:06;75.20;;;40.73;;
11255;SDS011;5685;52.384;13.420;2023-05-29T05:26:08;75.60;;;40.97;;
11255;SDS011;5685;52.384;13.420;2023-05-29T05:29:10;75.97;;;41.27;;
11255;SDS011;5685;52.384;13.420;2023-05-29T05:32:15;75.70;;;41.10;;
11255;SDS011;5685;52.384;13.420;2023-05-29T05:35:17;75.27;;;40.90;;
11255;SDS011;5685;52.384;13.420;2023-05-29T05:38:19;75.90;;;41.07;;
11255;SDS011;5685;52.384;13.420;2023-05-29T05:41:22;75.63;;;41.00;;
11255;SDS011;5685;52.384;13.420;2023-05-29T05:44:24;75.60;;;41.00;;
11255;SDS011;5685;52.384;13.420;2023-05-29T05:47:28;75.93;;;41.30;;
11255;SDS011;5685;52.384;13.420;2023-05-29T05:50:30;75.87;;;41.20;;
11255;SDS011;5685;52.384;13.420;2023-05-29T05:53:32;75.43;;;40.87;;
11255;SDS011;5685;52.384;13.420;2023-05-29T05:56:34;75.60;;;40.93;;
11255;SDS011;5685;52.384;13.420;2023-05-29T05:59:37;75.47;;;41.07;;
11255;SDS011;5685;52.384;13.420;2023-05-29T06:02:41;75.30;;;40.93;;
11255;SDS011;5685;52.384;13.420;2023-05-29T06:05:45;75.30;;;40.80;;
11255;SDS011;5685;52.384;13.420;2023-05-29T06:08:47;75.93;;;41.10;;
11255;SDS011;5685;52.384;13.420;2023-05-29T06:11:49;75.50;;;40.97;;
11255;SDS011;5685;52.384;13.420;2023-05-29T06:14:52;75.57;;;40.93;;
11255;SDS011;5685;52.384;13.420;2023-05-29T06:17:55;75.33;;;40.83;;
11255;SDS011;5685;52.384;13.420;2023-05-29T06:20:58;75.60;;;41.03;;
11255;SDS011;5685;52.384;13.420;2023-05-29T06:24:01;75.27;;;40.70;;
11255;SDS011;5685;52.384;13.420;2023-05-29T06:27:03;75.53;;;40.80;;
11255;SDS011;5685;52.384;13.420;2023-05-29T06:30:06;75.80;;;40.93;;
11255;SDS011;5685;52.384;13.420;2023-05-29T06:33:10;76.07;;;41.00;;
11255;SDS011;5685;52.384;13.420;2023-05-29T06:36:13;76.10;;;41.17;;
11255;SDS011;5685;52.384;13.420;2023-05-29T06:39:16;75.50;;;40.77;;
11255;SDS011;5685;52.384;13.420;2023-05-29T06:42:20;75.63;;;40.83;;
11255;SDS011;5685;52.384;13.420;2023-05-29T06:45:22;75.77;;;40.90;;
11255;SDS011;5685;52.384;13.420;2023-05-29T06:48:26;75.67;;;40.90;;
11255;SDS011;5685;52.384;13.420;2023-05-29T06:51:29;75.00;;;40.60;;
11255;SDS011;5685;52.384;13.420;2023-05-29T06:54:32;75.90;;;40.90;;
11255;SDS011;5685;52.384;13.420;2023-05-29T06:57:34;75.57;;;40.93;;
11255;SDS011;5685;52.384;13.420;2023-05-29T07:00:37;75.70;;;41.00;;
11255;SDS011;5685;52.384;13.420;2023-05-29T07:03:41;75.40;;;40.80;;
11255;SDS011;5685;52.384;13.420;2023-05-29T07:06:43;75.33;;;40.80;;
11255;SDS011;5685;52.384;13.420;2023-05-29T07:09:45;75.03;;;40.70;;
11255;SDS011;5685;52.384;13.420;2023-05-29T07:12:48;75.43;;;40.83;;
11255;SDS011;5685;52.384;13.420;2023-05-29T07:15:50;75.43;;;40.97;;
11255;SDS011;5685;52.384;13.420;2023-05-29T07:18:54;75.57;;;40.93;;
11255;SDS011;5685;52.384;13.420;2023-05-29T07:21:56;75.67;;;41.07;;
11255;SDS011;5685;52.384;13.420;2023-05-29T07:24:58;75.40;;;41.00;;
11255;SDS011;5685;52.384;13.420;2023-05-29T07:28:01;75.83;;;41.07;;
11255;SDS011;5685;52.384;13.420;2023-05-29T07:31:03;75.73;;;41.10;;
11255;SDS011;5685;52.384;13.420;2023-05-29T07:34:07;75.53;;;40.90;;
11255;SDS011;5685;52.384;13.420;2023-05-29T07:37:09;75.70;;;40.93;;
11255;SDS011;5685;52.384;13.420;2023-05-29T07:40:11;74.93;;;40.63;;
11255;SDS011;5685;52.384;13.420;2023-05-29T07:43:13;74.93;;;40.60;;
11255;SDS011;5685;52.384;13.420;2023-05-29T07:46:16;75.23;;;40.80;;
11255;SDS011;5685;52.384;13.420;2023-05-29T07:49:20;75.10;;;40.70;;
11255;SDS011;5685;52.384;13.420;2023-05-29T07:52:22;74.97;;;40.70;;
11255;SDS011;5685;52.384;13.420;2023-05-29T07:55:24;75.30;;;40.83;;
11255;SDS011;5685;52.384;13.420;2023-05-29T07:58:26;75.77;;;41.00;;
11255;SDS011;5685;52.384;13.420;2023-05-29T08:01:29;75.27;;;40.73;;
11255;SDS011;5685;52.384;13.420;2023-05-29T08:04:32;75.27;;;40.80;;
11255;SDS011;5685;52.384;13.420;2023-05-29T08:07:36;75.77;;;41.10;;
11255;SDS011;5685;52.384;13.420;2023-05-29T08:10:38;75.33;;;40.73;;
11255;SDS011;5685;52.384;13.420;2023-05-29T08:13:40;75.00;;;40.63;;
11255;SDS011;5685;52.384;13.420;2023-05-29T08:16:43;75.47;;;41.00;;
11255;SDS011;5685;52.384;13.420;2023-05-29T08:19:46;75.43;;;41.07;;
11255;SDS011;5685;52.384;13.420;2023-05-29T08:22:49;75.33;;;41.00;;
11255;SDS011;5685;52.384;13.420;2023-05-29T08:25:52;75.53;;;40.97;;
11255;SDS011;5685;52.384;13.420;2023-05-29T08:28:54;75.37;;;40.90;;
11255;SDS011;5685;52.384;13.420;2023-05-29T08:31:57;74.93;;;40.67;;
11255;SDS011;5685;52.384;13.420;2023-05-29T08:35:00;74.93;;;40.80;;
11255;SDS011;5685;52.384;13.420;2023-05-29T08:38:04;75.40;;;40.97;;
11255;SDS011;5685;52.384;13.420;2023-05-29T08:41:07;74.90;;;40.70;;
11255;SDS011;5685;52.384;13.420;2023-05-29T08:44:09;75.07;;;40.87;;
11255;SDS011;5685;52.384;13.420;2023-05-29T08:47:15;75.23;;;40.83;;
11255;SDS011;5685;52.384;13.420;2023-05-29T08:50:22;75.80;;;41.27;;
11255;SDS011;5685;52.384;13.420;2023-05-29T08:53:25;75.57;;;41.10;;
11255;SDS011;5685;52.384;13.420;2023-05-29T08:56:27;75.33;;;40.90;;
11255;SDS011;5685;52.384;13.420;2023-05-29T08:59:30;75.23;;;40.80;;
11255;SDS011;5685;52.384;13.420;2023-05-29T09:02:32;75.10;;;40.87;;
11255;SDS011;5685;52.384;13.420;2023-05-29T09:05:38;75.20;;;40.90;;
11255;SDS011;5685;52.384;13.420;2023-05-29T09:08:41;75.03;;;40.80;;
11255;SDS011;5685;52.384;13.420;2023-05-29T09:11:44;75.50;;;40.90;;
11255;SDS011;5685;52.384;13.420;2023-05-29T09:14:46;75.23;;;40.70;;
11255;SDS011;5685;52.384;13.420;2023-05-29T09:17:49;75.63;;;41.00;;
11255;SDS011;5685;52.384;13.420;2023-05-29T09:20:54;75.67;;;41.07;;
11255;SDS011;5685;52.384;13.420;2023-05-29T09:24:02;75.23;;;40.77;;
11255;SDS011;5685;52.384;13.420;2023-05-29T09:27:05;74.97;;;40.60;;
11255;SDS011;5685;52.384;13.420;2023-05-29T09:30:09;74.70;;;40.77;;
11255;SDS011;5685;52.384;13.420;2023-05-29T09:33:12;75.30;;;40.97;;
11255;SDS011;5685;52.384;13.420;2023-05-29T09:36:20;75.20;;;40.87;;
11255;SDS011;5685;52.384;13.420;2023-05-29T09:39:23;75.47;;;40.90;;
11255;SDS011;5685;52.384;13.420;2023-05-29T09:42:25;75.40;;;40.90;;
11255;SDS011;5685;52.384;13.420;2023-05-29T09:45:27;75.20;;;40.77;;
11255;SDS011;5685;52.384;13.420;2023-05-29T09:48:30;75.60;;;41.00;;
11255;SDS011;5685;52.384;13.420;2023-05-29T09:51:34;75.13;;;40.80;;
11255;SDS011;5685;52.384;13.420;2023-05-29T09:54:37;74.67;;;40.67;;
11255;SDS011;5685;52.384;13.420;2023-05-29T09:57:40;75.30;;;40.87;;
11255;SDS011;5685;52.384;13.420;2023-05-29T10:00:43;75.63;;;41.00;;
11255;SDS011;5685;52.384;13.420;2023-05-29T10:03:45;75.33;;;41.03;;
11255;SDS011;5685;52.384;13.420;2023-05-29T10:06:49;75.40;;;40.97;;
11255;SDS011;5685;52.384;13.420;2023-05-29T10:09:52;75.00;;;40.83;;
11255;SDS011;5685;52.384;13.420;2023-05-29T10:12:55;75.43;;;40.90;;
11255;SDS011;5685;52.384;13.420;2023-05-29T10:15:58;75.07;;;40.93;;
11255;SDS011;5685;52.384;13.420;2023-05-29T10:19:00;74.93;;;40.77;;
11255;SDS011;5685;52.384;13.420;2023-05-29T10:22:08;74.90;;;40.73;;
11255;SDS011;5685;52.384;13.420;2023-05-29T10:25:10;75.37;;;41.00;;
11255;SDS011;5685;52.384;13.420;2023-05-29T10:28:14;75.27;;;40.97;;
11255;SDS011;5685;52.384;13.420;2023-05-29T10:31:18;75.20;;;40.83;;
11255;SDS011;5685;52.384;13.420;2023-05-29T10:34:23;75.30;;;40.90;;
11255;SDS011;5685;52.384;13.420;2023-05-29T10:37:32;75.73;;;41.13;;
11255;SDS011;5685;52.384;13.420;2023-05-29T10:40:36;75.00;;;40.73;;
11255;SDS011;5685;52.384;13.420;2023-05-29T10:43:38;75.80;;;41.00;;
11255;SDS011;5685;52.384;13.420;2023-05-29T10:47:04;75.37;;;40.97;;
11255;SDS011;5685;52.384;13.420;2023-05-29T10:50:08;75.03;;;40.90;;
11255;SDS011;5685;52.384;13.420;2023-05-29T10:53:14;75.40;;;41.00;;
11255;SDS011;5685;52.384;13.420;2023-05-29T10:56:20;75.83;;;41.27;;
11255;SDS011;5685;52.384;13.420;2023-05-29T10:59:23;75.03;;;40.87;;
11255;SDS011;5685;52.384;13.420;2023-05-29T11:02:29;75.03;;;40.80;;
11255;SDS011;5685;52.384;13.420;2023-05-29T11:05:31;75.57;;;41.00;;
11255;SDS011;5685;52.384;13.420;2023-05-29T11:08:33;74.53;;;40.50;;
11255;SDS011;5685;52.384;13.420;2023-05-29T11:11:36;75.10;;;40.70;;
11255;SDS011;5685;52.384;13.420;2023-05-29T11:14:45;75.07;;;40.90;;
11255;SDS011;5685;52.384;13.420;2023-05-29T11:17:49;74.93;;;40.67;;
11255;SDS011;5685;52.384;13.420;2023-05-29T11:20:56;75.23;;;40.83;;
11255;SDS011;5685;52.384;13.420;2023-05-29T11:24:00;75.43;;;41.00;;
11255;SDS011;5685;52.384;13.420;2023-05-29T11:27:05;75.97;;;41.30;;
11255;SDS011;5685;52.384;13.420;2023-05-29T11:30:08;75.50;;;41.00;;
11255;SDS011;5685;52.384;13.420;2023-05-29T11:33:14;74.77;;;40.73;;
11255;SDS011;5685;52.384;13.420;2023-05-29T11:36:18;75.43;;;40.97;;
11255;SDS011;5685;52.384;13.420;2023-05-29T11:39:20;75.03;;;40.73;;
11255;SDS011;5685;52.384;13.420;2023-05-29T11:42:23;75.43;;;41.00;;
11255;SDS011;5685;52.384;13.420;2023-05-29T11:45:25;75.17;;;40.90;;
11255;SDS011;5685;52.384;13.420;2023-05-29T11:48:29;75.40;;;41.03;;
11255;SDS011;5685;52.384;13.420;2023-05-29T11:51:31;75.50;;;41.07;;
11255;SDS011;5685;52.384;13.420;2023-05-29T11:54:33;75.20;;;40.90;;
11255;SDS011;5685;52.384;13.420;2023-05-29T11:57:36;75.37;;;41.07;;
11255;SDS011;5685;52.384;13.420;2023-05-29T12:00:38;75.10;;;41.00;;
11255;SDS011;5685;52.384;13.420;2023-05-29T12:03:44;75.60;;;41.10;;
11255;SDS011;5685;52.384;13.420;2023-05-29T12:06:46;75.10;;;40.90;;
11255;SDS011;5685;52.384;13.420;2023-05-29T12:09:49;75.40;;;41.03;;
11255;SDS011;5685;52.384;13.420;2023-05-29T12:12:53;75.63;;;41.10;;
11255;SDS011;5685;52.384;13.420;2023-05-29T12:15:56;74.73;;;40.73;;
11255;SDS011;5685;52.384;13.420;2023-05-29T12:19:01;75.23;;;40.93;;
11255;SDS011;5685;52.384;13.420;2023-05-29T12:22:03;75.63;;;41.23;;
11255;SDS011;5685;52.384;13.420;2023-05-29T12:25:06;75.10;;;40.93;;
11255;SDS011;5685;52.384;13.420;2023-05-29T12:28:09;75.03;;;40.90;;
11255;SDS011;5685;52.384;13.420;2023-05-29T12:31:26;75.93;;;41.33;;
11255;SDS011;5685;52.384;13.420;2023-05-29T12:34:35;75.10;;;41.00;;
11255;SDS011;5685;52.384;13.420;2023-05-29T12:37:41;75.40;;;41.17;;
11255;SDS011;5685;52.384;13.420;2023-05-29T12:40:47;75.50;;;41.20;;
11255;SDS011;5685;52.384;13.420;2023-05-29T12:43:50;74.83;;;40.87;;
11255;SDS011;5685;52.384;13.420;2023-05-29T12:46:56;75.57;;;41.27;;
11255;SDS011;5685;52.384;13.420;2023-05-29T12:50:00;75.40;;;41.20;;
11255;SDS011;5685;52.384;13.420;2023-05-29T12:53:07;75.30;;;41.07;;
11255;SDS011;5685;52.384;13.420;2023-05-29T12:56:09;75.57;;;41.27;;
11255;SDS011;5685;52.384;13.420;2023-05-29T12:59:12;75.43;;;41.27;;
11255;SDS011;5685;52.384;13.420;2023-05-29T13:02:14;75.30;;;41.23;;
11255;SDS011;5685;52.384;13.420;2023-05-29T13:05:18;75.23;;;41.07;;
11255;SDS011;5685;52.384;13.420;2023-05-29T13:08:22;76.00;;;41.37;;
11255;SDS011;5685;52.384;13.420;2023-05-29T13:11:25;75.53;;;41.30;;
11255;SDS011;5685;52.384;13.420;2023-05-29T13:14:27;75.77;;;41.30;;
11255;SDS011;5685;52.384;13.420;2023-05-29T13:17:29;75.53;;;41.30;;
11255;SDS011;5685;52.384;13.420;2023-05-29T13:20:33;75.37;;;41.17;;
11255;SDS011;5685;52.384;13.420;2023-05-29T13:23:35;75.40;;;41.33;;
11255;SDS011;5685;52.384;13.420;2023-05-29T13:26:38;75.53;;;41.37;;
11255;SDS011;5685;52.384;13.420;2023-05-29T13:29:40;74.73;;;40.90;;
11255;SDS011;5685;52.384;13.420;2023-05-29T13:32:43;75.47;;;41.37;;
11255;SDS011;5685;52.384;13.420;2023-05-29T13:35:46;75.10;;;41.07;;
11255;SDS011;5685;52.384;13.420;2023-05-29T13:38:49;75.27;;;41.23;;
11255;SDS011;5685;52.384;13.420;2023-05-29T13:41:51;75.57;;;41.47;;
11255;SDS011;5685;52.384;13.420;2023-05-29T13:44:53;75.23;;;41.27;;
11255;SDS011;5685;52.384;13.420;2023-05-29T13:47:56;75.40;;;41.47;;
11255;SDS011;5685;52.384;13.420;2023-05-29T13:51:00;75.83;;;41.53;;
11255;SDS011;5685;52.384;13.420;2023-05-29T13:54:02;75.53;;;41.50;;
11255;SDS011;5685;52.384;13.420;2023-05-29T13:57:05;75.70;;;41.47;;
11255;SDS011;5685;52.384;13.420;2023-05-29T14:00:08;75.57;;;41.47;;
11255;SDS011;5685;52.384;13.420;2023-05-29T14:03:11;75.87;;;41.67;;
11255;SDS011;5685;52.384;13.420;2023-05-29T14:06:14;75.60;;;41.57;;
11255;SDS011;5685;52.384;13.420;2023-05-29T14:09:17;75.93;;;41.70;;
11255;SDS011;5685;52.384;13.420;2023-05-29T14:12:26;75.43;;;41.43;;
11255;SDS011;5685;52.384;13.420;2023-05-29T14:15:28;75.73;;;41.53;;
11255;SDS011;5685;52.384;13.420;2023-05-29T14:18:31;75.47;;;41.40;;
11255;SDS011;5685;52.384;13.420;2023-05-29T14:21:34;76.00;;;41.70;;
11255;SDS011;5685;52.384;13.420;2023-05-29T14:24:37;75.70;;;41.50;;
11255;SDS011;5685;52.384;13.420;2023-05-29T14:27:39;75.33;;;41.27;;
11255;SDS011;5685;52.384;13.420;2023-05-29T14:30:42;75.50;;;41.40;;
11255;SDS011;5685;52.384;13.420;2023-05-29T14:33:44;75.77;;;41.70;;
11255;SDS011;5685;52.384;13.420;2023-05-29T14:36:48;75.87;;;41.67;;
11255;SDS011;5685;52.384;13.420;2023-05-29T14:39:50;75.53;;;41.43;;
11255;SDS011;5685;52.384;13.420;2023-05-29T14:42:53;75.57;;;41.50;;
11255;SDS011;5685;52.384;13.420;2023-05-29T14:45:55;75.83;;;41.60;;
11255;SDS011;5685;52.384;13.420;2023-05-29T14:48:58;76.17;;;41.90;;
11255;SDS011;5685;52.384;13.420;2023-05-29T14:52:02;76.17;;;41.80;;
11255;SDS011;5685;52.384;13.420;2023-05-29T14:55:04;75.00;;;41.30;;
11255;SDS011;5685;52.384;13.420;2023-05-29T14:58:07;75.40;;;41.50;;
11255;SDS011;5685;52.384;13.420;2023-05-29T15:01:10;75.87;;;41.67;;
11255;SDS011;5685;52.384;13.420;2023-05-29T15:04:12;75.70;;;41.50;;
11255;SDS011;5685;52.384;13.420;2023-05-29T15:07:16;75.37;;;41.43;;
11255;SDS011;5685;52.384;13.420;2023-05-29T15:10:18;75.50;;;41.60;;
11255;SDS011;5685;52.384;13.420;2023-05-29T15:13:21;75.90;;;41.70;;
11255;SDS011;5685;52.384;13.420;2023-05-29T15:16:24;75.87;;;41.70;;
11255;SDS011;5685;52.384;13.420;2023-05-29T15:19:27;75.80;;;41.70;;
11255;SDS011;5685;52.384;13.420;2023-05-29T15:22:30;75.40;;;41.47;;
11255;SDS011;5685;52.384;13.420;2023-05-29T15:25:33;75.73;;;41.53;;
11255;SDS011;5685;52.384;13.420;2023-05-29T15:28:35;75.73;;;41.57;;
11255;SDS011;5685;52.384;13.420;2023-05-29T15:31:37;75.77;;;41.63;;
11255;SDS011;5685;52.384;13.420;2023-05-29T15:34:40;75.73;;;41.67;;
11255;SDS011;5685;52.384;13.420;2023-05-29T15:37:43;75.50;;;41.57;;
11255;SDS011;5685;52.384;13.420;2023-05-29T15:40:46;75.93;;;41.80;;
11255;SDS011;5685;52.384;13.420;2023-05-29T15:43:48;75.40;;;41.40;;
11255;SDS011;5685;52.384;13.420;2023-05-29T15:46:50;75.67;;;41.67;;
11255;SDS011;5685;52.384;13.420;2023-05-29T15:49:53;75.90;;;41.80;;
11255;SDS011;5685;52.384;13.420;2023-05-29T15:52:56;75.67;;;41.70;;
11255;SDS011;5685;52.384;13.420;2023-05-29T15:55:59;75.77;;;41.57;;
11255;SDS011;5685;52.384;13.420;2023-05-29T15:59:01;76.03;;;41.73;;
11255;SDS011;5685;52.384;13.420;2023-05-29T16:02:05;76.10;;;41.87;;
11255;SDS011;5685;52.384;13.420;2023-05-29T16:05:09;76.30;;;41.90;;
11255;SDS011;5685;52.384;13.420;2023-05-29T16:08:13;75.80;;;41.73;;
11255;SDS011;5685;52.384;13.420;2023-05-29T16:11:15;75.53;;;41.63;;
11255;SDS011;5685;52.384;13.420;2023-05-29T16:14:17;76.30;;;41.93;;
11255;SDS011;5685;52.384;13.420;2023-05-29T16:17:19;76.50;;;42.10;;
11255;SDS011;5685;52.384;13.420;2023-05-29T16:20:22;75.80;;;41.90;;
11255;SDS011;5685;52.384;13.420;2023-05-29T16:23:26;76.27;;;42.10;;
11255;SDS011;5685;52.384;13.420;2023-05-29T16:26:28;75.80;;;41.80;;
11255;SDS011;5685;52.384;13.420;2023-05-29T16:29:32;76.07;;;41.87;;
11255;SDS011;5685;52.384;13.420;2023-05-29T16:32:34;75.50;;;41.53;;
11255;SDS011;5685;52.384;13.420;2023-05-29T16:35:37;76.27;;;42.00;;
11255;SDS011;5685;52.384;13.420;2023-05-29T16:38:40;76.10;;;41.77;;
11255;SDS011;5685;52.384;13.420;2023-05-29T16:41:43;75.87;;;41.73;;
11255;SDS011;5685;52.384;13.420;2023-05-29T16:44:45;76.27;;;41.90;;
11255;SDS011;5685;52.384;13.420;2023-05-29T16:47:47;76.00;;;41.73;;
11255;SDS011;5685;52.384;13.420;2023-05-29T16:50:52;76.10;;;41.83;;
11255;SDS011;5685;52.384;13.420;2023-05-29T16:53:55;76.17;;;41.93;;
11255;SDS011;5685;52.384;13.420;2023-05-29T16:56:58;75.63;;;41.67;;
11255;SDS011;5685;52.384;13.420;2023-05-29T17:00:01;75.67;;;41.63;;
11255;SDS011;5685;52.384;13.420;2023-05-29T17:03:03;75.93;;;41.73;;
11255;SDS011;5685;52.384;13.420;2023-05-29T17:06:05;75.90;;;41.70;;
11255;SDS011;5685;52.384;13.420;2023-05-29T17:09:09;76.13;;;41.93;;
11255;SDS011;5685;52.384;13.420;2023-05-29T17:12:13;75.97;;;41.73;;
11255;SDS011;5685;52.384;13.420;2023-05-29T17:15:15;75.80;;;41.80;;
11255;SDS011;5685;52.384;13.420;2023-05-29T17:18:17;76.03;;;41.87;;
11255;SDS011;5685;52.384;13.420;2023-05-29T17:21:20;75.37;;;41.60;;
11255;SDS011;5685;52.384;13.420;2023-05-29T17:24:24;76.40;;;42.03;;
11255;SDS011;5685;52.384;13.420;2023-05-29T17:27:26;75.40;;;41.57;;
11255;SDS011;5685;52.384;13.420;2023-05-29T17:30:29;75.17;;;41.30;;
11255;SDS011;5685;52.384;13.420;2023-05-29T17:33:31;75.53;;;41.53;;
11255;SDS011;5685;52.384;13.420;2023-05-29T17:36:33;75.60;;;41.50;;
11255;SDS011;5685;52.384;13.420;2023-05-29T17:39:37;75.43;;;41.50;;
11255;SDS011;5685;52.384;13.420;2023-05-29T17:42:39;76.00;;;41.63;;
11255;SDS011;5685;52.384;13.420;2023-05-29T17:45:41;75.77;;;41.50;;
11255;SDS011;5685;52.384;13.420;2023-05-29T17:48:46;75.87;;;41.53;;
11255;SDS011;5685;52.384;13.420;2023-05-29T17:51:48;75.77;;;41.47;;